Time;durP1;ratioP1;P1;durP2;ratioP2;P2;SDS_P1;SDS_P2;PMS_P1;PMS_P2;Temp;Humidity;BMP_temperature;BMP_pressure;BME280_temperature;BME280_humidity;BME280_pressure;Samples;Min_cycle;Max_cycle;Signal;HPM_P1;HPM_P2
2023/08/29 00:00:21;;;;;;;0.20;0.10;;;;;;;;;;4999121;28;20045;-85
2023/08/29 00:02:48;;;;;;;0.20;0.00;;;;;;;;;;5001482;28;20037;-85
2023/08/29 00:05:14;;;;;;;0.20;0.10;;;;;;;;;;5016115;28;20041;-85
2023/08/29 00:07:42;;;;;;;0.20;0.10;;;;;;;;;;5001125;28;20190;-85
2023/08/29 00:10:08;;;;;;;0.20;0.10;;;;;;;;;;4998390;28;20049;-85
2023/08/29 00:12:42;;;;;;;0.20;0.10;;;;;;;;;;5092223;22;20197;-85
2023/08/29 00:15:14;;;;;;;0.20;0.10;;;;;;;;;;5022818;28;20040;-88
2023/08/29 00:17:50;;;;;;;0.20;0.10;;;;;;;;;;5037239;28;20033;-85
2023/08/29 00:20:28;;;;;;;0.20;0.10;;;;;;;;;;5034021;28;20071;-85
2023/08/29 00:22:55;;;;;;;0.20;0.10;;;;;;;;;;5025361;28;20328;-85
2023/08/29 00:25:21;;;;;;;0.20;0.10;;;;;;;;;;5004969;28;20129;-85
2023/08/29 00:27:47;;;;;;;0.20;0.10;;;;;;;;;;5003807;28;20061;-85
2023/08/29 00:30:14;;;;;;;0.20;0.00;;;;;;;;;;5017627;28;20065;-85
2023/08/29 00:32:40;;;;;;;0.20;0.00;;;;;;;;;;5022260;28;20574;-85
2023/08/29 00:35:07;;;;;;;0.20;0.10;;;;;;;;;;5000967;28;20099;-85
2023/08/29 00:37:33;;;;;;;0.20;0.08;;;;;;;;;;5000431;28;20079;-86
2023/08/29 00:39:59;;;;;;;0.20;0.10;;;;;;;;;;5006550;28;20065;-86
2023/08/29 00:42:25;;;;;;;0.20;0.10;;;;;;;;;;5005301;28;20037;-86
2023/08/29 00:45:12;;;;;;;0.20;0.10;;;;;;;;;;5023608;28;20052;-85
2023/08/29 00:47:44;;;;;;;0.43;0.22;;;;;;;;;;5025679;28;20068;-85
2023/08/29 00:50:13;;;;;;;0.20;0.00;;;;;;;;;;5005595;28;20045;-85
2023/08/29 00:52:47;;;;;;;0.20;0.10;;;;;;;;;;5001719;28;20063;-86
2023/08/29 00:58:20;;;;;;;0.20;0.10;;;;;;;;;;5017988;28;20042;-86
2023/08/29 01:00:54;;;;;;;0.30;0.10;;;;;;;;;;5012280;28;20119;-85
2023/08/29 01:03:23;;;;;;;0.20;0.00;;;;;;;;;;5029233;28;20534;-85
2023/08/29 01:05:58;;;;;;;0.20;0.10;;;;;;;;;;5003786;28;20160;-85
2023/08/29 01:08:25;;;;;;;0.20;0.10;;;;;;;;;;5024528;28;20041;-85
2023/08/29 01:11:13;;;;;;;0.20;0.00;;;;;;;;;;5027237;28;20045;-85
2023/08/29 01:14:05;;;;;;;0.20;0.20;;;;;;;;;;5028743;28;20082;-86
2023/08/29 01:16:47;;;;;;;0.20;0.00;;;;;;;;;;5024519;28;20037;-86
2023/08/29 01:19:17;;;;;;;0.20;0.05;;;;;;;;;;4999560;28;20052;-87
2023/08/29 01:22:09;;;;;;;0.20;0.03;;;;;;;;;;5013286;28;20126;-85
2023/08/29 01:24:48;;;;;;;0.20;0.10;;;;;;;;;;5007710;28;20087;-85
2023/08/29 01:27:41;;;;;;;0.20;0.10;;;;;;;;;;5012368;28;20041;-85
2023/08/29 01:30:29;;;;;;;0.20;0.10;;;;;;;;;;5015660;28;20120;-89
2023/08/29 01:33:12;;;;;;;0.75;0.20;;;;;;;;;;5022266;28;20064;-85
2023/08/29 01:35:55;;;;;;;0.20;0.08;;;;;;;;;;5014376;28;20042;-87
2023/08/29 01:38:41;;;;;;;0.20;0.10;;;;;;;;;;5001323;28;20042;-87
2023/08/29 01:41:29;;;;;;;;;;;;;;;;;;;;;
2023/08/29 01:43:59;;;;;;;0.20;0.10;;;;;;;;;;5002188;28;20957;-86
2023/08/29 01:46:40;;;;;;;0.20;0.10;;;;;;;;;;5020271;28;20499;-86
2023/08/29 01:49:24;;;;;;;0.20;0.10;;;;;;;;;;5016574;28;20560;-85
2023/08/29 01:52:02;;;;;;;0.20;0.10;;;;;;;;;;4998375;28;20130;-86
2023/08/29 01:54:42;;;;;;;0.20;0.10;;;;;;;;;;5015898;28;20053;-89
2023/08/29 01:57:32;;;;;;;0.20;0.10;;;;;;;;;;5008492;28;20081;-86
2023/08/29 02:00:20;;;;;;;0.20;0.10;;;;;;;;;;5018310;28;20065;-86
2023/08/29 02:06:41;;;;;;;0.20;0.10;;;;;;;;;;5007941;28;20399;-87
2023/08/29 02:17:03;;;;;;;;;;;;;;;;;;;;;
2023/08/29 02:20:25;;;;;;;0.20;0.10;;;;;;;;;;5010947;28;20541;-85
2023/08/29 02:23:03;;;;;;;0.20;0.00;;;;;;;;;;5027189;22;20178;-80
2023/08/29 02:25:29;;;;;;;0.20;0.10;;;;;;;;;;5034170;28;20119;-80
2023/08/29 02:27:55;;;;;;;0.20;0.00;;;;;;;;;;5016876;28;20083;-79
2023/08/29 02:30:21;;;;;;;0.20;0.10;;;;;;;;;;5019889;28;20070;-80
2023/08/29 02:32:47;;;;;;;0.20;0.00;;;;;;;;;;5025990;28;20068;-80
2023/08/29 02:35:13;;;;;;;0.20;0.10;;;;;;;;;;5026754;28;20487;-80
2023/08/29 02:37:40;;;;;;;0.20;0.10;;;;;;;;;;5019816;28;20040;-80
2023/08/29 02:40:10;;;;;;;0.20;0.10;;;;;;;;;;5038548;28;20095;-80
2023/08/29 02:42:36;;;;;;;0.20;0.08;;;;;;;;;;5016979;28;20104;-80
2023/08/29 02:45:03;;;;;;;0.20;0.10;;;;;;;;;;5027967;28;20047;-80
2023/08/29 02:47:29;;;;;;;0.20;0.10;;;;;;;;;;5048879;28;20062;-79
2023/08/29 02:49:55;;;;;;;0.20;0.00;;;;;;;;;;5046046;28;20068;-80
2023/08/29 02:52:21;;;;;;;0.20;0.10;;;;;;;;;;5013752;28;20518;-80
2023/08/29 02:54:47;;;;;;;0.20;0.10;;;;;;;;;;5020264;28;20127;-80
2023/08/29 02:57:13;;;;;;;0.20;0.10;;;;;;;;;;5024308;28;20068;-80
2023/08/29 02:59:40;;;;;;;0.20;0.10;;;;;;;;;;5032207;28;20037;-80
2023/08/29 03:02:06;;;;;;;0.47;0.30;;;;;;;;;;5024898;28;20040;-80
2023/08/29 03:04:32;;;;;;;0.20;0.10;;;;;;;;;;5002852;28;20037;-81
2023/08/29 03:06:58;;;;;;;0.20;0.05;;;;;;;;;;5030914;28;20147;-80
2023/08/29 03:09:25;;;;;;;0.20;0.10;;;;;;;;;;5020127;28;20144;-80
2023/08/29 03:11:51;;;;;;;0.20;0.10;;;;;;;;;;5010446;28;20050;-80
2023/08/29 03:14:17;;;;;;;0.20;0.00;;;;;;;;;;5034389;28;20067;-80
2023/08/29 03:16:43;;;;;;;0.20;0.10;;;;;;;;;;5024543;28;20036;-80
2023/08/29 03:19:09;;;;;;;0.20;0.00;;;;;;;;;;5019864;28;20470;-79
2023/08/29 03:21:35;;;;;;;0.20;0.10;;;;;;;;;;5052350;28;20088;-80
2023/08/29 03:24:02;;;;;;;0.20;0.00;;;;;;;;;;5013357;28;20059;-80
2023/08/29 03:26:28;;;;;;;0.20;0.10;;;;;;;;;;5024860;28;20097;-80
2023/08/29 03:28:54;;;;;;;0.20;0.00;;;;;;;;;;5023172;28;20040;-81
2023/08/29 03:31:20;;;;;;;0.20;0.10;;;;;;;;;;5023283;28;20041;-80
2023/08/29 03:33:46;;;;;;;0.20;0.10;;;;;;;;;;5020104;28;20100;-80
2023/08/29 03:36:12;;;;;;;0.20;0.10;;;;;;;;;;5040070;28;20036;-80
2023/08/29 03:38:39;;;;;;;0.20;0.10;;;;;;;;;;5038618;28;20041;-81
2023/08/29 03:41:05;;;;;;;0.20;0.10;;;;;;;;;;5018031;28;20044;-80
2023/08/29 03:43:33;;;;;;;0.20;0.03;;;;;;;;;;5034462;28;20045;-80
2023/08/29 03:46:00;;;;;;;0.20;0.00;;;;;;;;;;5037254;28;20037;-80
2023/08/29 03:48:26;;;;;;;0.20;0.00;;;;;;;;;;5035487;28;20444;-80
2023/08/29 03:50:52;;;;;;;0.20;0.10;;;;;;;;;;5037441;28;20052;-80
2023/08/29 03:53:18;;;;;;;0.20;0.10;;;;;;;;;;5015008;28;21133;-80
2023/08/29 03:55:44;;;;;;;0.20;0.10;;;;;;;;;;5038635;28;20045;-80
2023/08/29 03:58:10;;;;;;;0.20;0.10;;;;;;;;;;5018773;28;20037;-80
2023/08/29 04:00:36;;;;;;;0.20;0.20;;;;;;;;;;5031735;28;20071;-80
2023/08/29 04:03:09;;;;;;;0.20;0.03;;;;;;;;;;5033571;28;20053;-80
2023/08/29 04:05:36;;;;;;;0.20;0.10;;;;;;;;;;5031587;28;20079;-81
2023/08/29 04:08:03;;;;;;;0.20;0.00;;;;;;;;;;5027055;28;20161;-80
2023/08/29 04:10:29;;;;;;;0.20;0.10;;;;;;;;;;5029974;28;20052;-80
2023/08/29 04:12:55;;;;;;;0.20;0.10;;;;;;;;;;5013745;28;20136;-80
2023/08/29 04:15:21;;;;;;;0.20;0.00;;;;;;;;;;5041245;28;21073;-80
2023/08/29 04:17:47;;;;;;;0.20;0.00;;;;;;;;;;5036721;28;20044;-79
2023/08/29 04:20:13;;;;;;;0.20;0.10;;;;;;;;;;5035661;28;20040;-79
2023/08/29 04:22:39;;;;;;;0.20;0.00;;;;;;;;;;5025294;28;20033;-80
2023/08/29 04:25:06;;;;;;;0.20;0.00;;;;;;;;;;5039092;28;20115;-80
2023/08/29 04:27:32;;;;;;;0.20;0.10;;;;;;;;;;5021986;28;20041;-80
2023/08/29 04:29:58;;;;;;;0.20;0.10;;;;;;;;;;5042946;28;20080;-80
2023/08/29 04:32:25;;;;;;;0.20;0.10;;;;;;;;;;5016258;28;20040;-80
2023/08/29 04:34:51;;;;;;;0.20;0.00;;;;;;;;;;5037985;28;20036;-80
2023/08/29 04:37:17;;;;;;;0.20;0.10;;;;;;;;;;5025545;28;20052;-80
2023/08/29 04:39:44;;;;;;;0.20;0.05;;;;;;;;;;5022122;28;20036;-80
2023/08/29 04:42:10;;;;;;;0.20;0.10;;;;;;;;;;5044971;28;20063;-80
2023/08/29 04:44:36;;;;;;;0.20;0.10;;;;;;;;;;5031969;28;20040;-80
2023/08/29 04:47:03;;;;;;;0.20;0.10;;;;;;;;;;5031085;28;20076;-80
2023/08/29 04:49:30;;;;;;;0.20;0.10;;;;;;;;;;5026183;28;20540;-80
2023/08/29 04:51:56;;;;;;;0.32;0.30;;;;;;;;;;5017970;28;20047;-80
2023/08/29 04:54:22;;;;;;;0.20;0.10;;;;;;;;;;5030566;28;20041;-80
2023/08/29 04:56:48;;;;;;;0.20;0.08;;;;;;;;;;5013307;28;20048;-80
2023/08/29 04:59:14;;;;;;;0.20;0.10;;;;;;;;;;5021210;28;20068;-81
2023/08/29 05:01:40;;;;;;;0.20;0.10;;;;;;;;;;5042699;28;20078;-80
2023/08/29 05:04:08;;;;;;;0.43;0.30;;;;;;;;;;5026560;28;20094;-80
2023/08/29 05:06:34;;;;;;;0.20;0.08;;;;;;;;;;5017999;28;20043;-80
2023/08/29 05:09:00;;;;;;;0.20;0.08;;;;;;;;;;5013936;28;20033;-81
2023/08/29 05:11:26;;;;;;;0.20;0.10;;;;;;;;;;5034905;28;20051;-80
2023/08/29 05:13:52;;;;;;;0.20;0.08;;;;;;;;;;5032681;28;20493;-80
2023/08/29 05:16:18;;;;;;;0.85;0.60;;;;;;;;;;5033336;28;20175;-80
2023/08/29 05:18:44;;;;;;;0.20;0.10;;;;;;;;;;5017937;28;20044;-80
2023/08/29 05:21:10;;;;;;;0.20;0.10;;;;;;;;;;5037328;28;20033;-81
2023/08/29 05:23:36;;;;;;;0.20;0.00;;;;;;;;;;5030912;28;20037;-80
2023/08/29 05:26:03;;;;;;;0.20;0.10;;;;;;;;;;5011322;28;20032;-80
2023/08/29 05:28:29;;;;;;;0.20;0.00;;;;;;;;;;5023483;28;20037;-81
2023/08/29 05:30:55;;;;;;;0.20;0.10;;;;;;;;;;5030103;28;20036;-80
2023/08/29 05:33:21;;;;;;;0.20;0.00;;;;;;;;;;5041277;28;20036;-81
2023/08/29 05:35:47;;;;;;;0.20;0.00;;;;;;;;;;5044711;28;20044;-80
2023/08/29 05:38:13;;;;;;;0.20;0.10;;;;;;;;;;5024106;28;20037;-80
2023/08/29 05:40:39;;;;;;;0.57;0.50;;;;;;;;;;5031145;28;20032;-80
2023/08/29 05:43:05;;;;;;;0.20;0.10;;;;;;;;;;5031126;28;20044;-81
2023/08/29 05:45:31;;;;;;;0.20;0.10;;;;;;;;;;5033464;28;20040;-81
2023/08/29 05:47:57;;;;;;;0.20;0.10;;;;;;;;;;5026229;28;20047;-81
2023/08/29 05:50:23;;;;;;;0.20;0.10;;;;;;;;;;5048098;28;20045;-81
2023/08/29 05:52:49;;;;;;;0.20;0.10;;;;;;;;;;5041476;28;20326;-80
2023/08/29 05:55:15;;;;;;;0.20;0.10;;;;;;;;;;5040812;28;20124;-80
2023/08/29 05:57:41;;;;;;;0.20;0.10;;;;;;;;;;5044409;28;20047;-80
2023/08/29 06:00:08;;;;;;;0.20;0.10;;;;;;;;;;5026651;28;20029;-80
2023/08/29 06:02:34;;;;;;;0.20;0.10;;;;;;;;;;5045219;28;20086;-80
2023/08/29 06:05:00;;;;;;;0.20;0.10;;;;;;;;;;5044524;28;20124;-81
2023/08/29 06:07:26;;;;;;;0.20;0.03;;;;;;;;;;5040648;28;20043;-81
2023/08/29 06:09:52;;;;;;;0.20;0.10;;;;;;;;;;5044538;28;20060;-81
2023/08/29 06:12:18;;;;;;;0.20;0.10;;;;;;;;;;5036906;28;20044;-81
2023/08/29 06:14:44;;;;;;;0.20;0.10;;;;;;;;;;5037980;28;20516;-81
2023/08/29 06:17:11;;;;;;;0.20;0.10;;;;;;;;;;5029257;28;20048;-81
2023/08/29 06:19:37;;;;;;;0.20;0.10;;;;;;;;;;5046938;28;20055;-80
2023/08/29 06:22:03;;;;;;;0.20;0.10;;;;;;;;;;5055541;28;20352;-80
2023/08/29 06:24:29;;;;;;;0.20;0.10;;;;;;;;;;5032610;28;20064;-81
2023/08/29 06:26:55;;;;;;;0.20;0.10;;;;;;;;;;5045320;28;20292;-80
2023/08/29 06:29:21;;;;;;;0.20;0.00;;;;;;;;;;5037420;28;20163;-81
2023/08/29 06:31:47;;;;;;;0.20;0.10;;;;;;;;;;5025140;28;20064;-80
2023/08/29 06:34:13;;;;;;;0.20;0.10;;;;;;;;;;5037217;28;20048;-80
2023/08/29 06:36:39;;;;;;;0.20;0.03;;;;;;;;;;5016324;28;20218;-80
2023/08/29 06:39:05;;;;;;;0.20;0.00;;;;;;;;;;5032254;28;20131;-80
2023/08/29 06:41:31;;;;;;;0.20;0.10;;;;;;;;;;5023485;28;20657;-80
2023/08/29 06:43:57;;;;;;;0.20;0.10;;;;;;;;;;5032554;28;20513;-80
2023/08/29 06:46:23;;;;;;;0.20;0.10;;;;;;;;;;5021816;28;20036;-80
2023/08/29 06:48:50;;;;;;;0.20;0.10;;;;;;;;;;5017661;28;20110;-80
2023/08/29 06:51:16;;;;;;;0.20;0.10;;;;;;;;;;5023325;28;20447;-80
2023/08/29 06:53:42;;;;;;;1.20;0.90;;;;;;;;;;5033233;28;20131;-80
2023/08/29 06:56:08;;;;;;;0.20;0.20;;;;;;;;;;5020337;28;20136;-81
2023/08/29 06:58:34;;;;;;;0.20;0.10;;;;;;;;;;5022448;28;20670;-81
2023/08/29 07:01:00;;;;;;;0.20;0.10;;;;;;;;;;5021163;28;20037;-81
2023/08/29 07:03:26;;;;;;;0.28;0.20;;;;;;;;;;5027752;28;20037;-80
2023/08/29 07:05:54;;;;;;;0.30;0.20;;;;;;;;;;5023668;28;20037;-81
2023/08/29 07:08:20;;;;;;;0.20;0.00;;;;;;;;;;5021731;28;20410;-80
2023/08/29 07:10:46;;;;;;;0.20;0.10;;;;;;;;;;5031573;28;20044;-81
2023/08/29 07:13:12;;;;;;;0.20;0.00;;;;;;;;;;5018700;28;20036;-81
2023/08/29 07:15:38;;;;;;;0.20;0.10;;;;;;;;;;5032098;28;20554;-80
2023/08/29 07:18:05;;;;;;;0.55;0.20;;;;;;;;;;5021665;28;20497;-80
2023/08/29 07:20:31;;;;;;;0.20;0.10;;;;;;;;;;5033818;28;20044;-81
2023/08/29 07:22:57;;;;;;;0.20;0.10;;;;;;;;;;5017558;28;20641;-80
2023/08/29 07:25:38;;;;;;;0.20;0.10;;;;;;;;;;5028993;28;20128;-79
2023/08/29 07:28:04;;;;;;;0.20;0.10;;;;;;;;;;5024964;28;20041;-79
2023/08/29 07:30:30;;;;;;;0.20;0.10;;;;;;;;;;5025864;28;20091;-79
2023/08/29 07:32:56;;;;;;;0.20;0.10;;;;;;;;;;5022976;28;20580;-79
2023/08/29 07:35:22;;;;;;;0.20;0.10;;;;;;;;;;5038070;28;20570;-79
2023/08/29 07:37:48;;;;;;;0.20;0.10;;;;;;;;;;5024145;28;20063;-79
2023/08/29 07:40:14;;;;;;;0.20;0.10;;;;;;;;;;5035011;28;20128;-79
2023/08/29 07:42:41;;;;;;;0.20;0.00;;;;;;;;;;5024182;28;20042;-79
2023/08/29 07:45:07;;;;;;;0.20;0.10;;;;;;;;;;5048106;28;20036;-80
2023/08/29 07:47:33;;;;;;;0.20;0.00;;;;;;;;;;5027825;28;20049;-78
2023/08/29 07:49:59;;;;;;;0.20;0.00;;;;;;;;;;5035523;28;20544;-80
2023/08/29 07:52:26;;;;;;;0.20;0.03;;;;;;;;;;5036228;28;20037;-80
2023/08/29 07:54:52;;;;;;;0.20;0.10;;;;;;;;;;5027829;28;20033;-81
2023/08/29 07:57:18;;;;;;;0.20;0.10;;;;;;;;;;5036683;28;20531;-81
2023/08/29 07:59:44;;;;;;;0.30;0.20;;;;;;;;;;5029469;28;20048;-81
2023/08/29 08:02:10;;;;;;;0.20;0.05;;;;;;;;;;5038441;28;20128;-80
2023/08/29 08:04:36;;;;;;;0.20;0.00;;;;;;;;;;5035903;28;20041;-79
2023/08/29 08:07:02;;;;;;;0.20;0.10;;;;;;;;;;5033239;28;20051;-80
2023/08/29 08:09:28;;;;;;;0.20;0.10;;;;;;;;;;5031748;28;20040;-80
2023/08/29 08:11:55;;;;;;;0.20;0.10;;;;;;;;;;5045500;28;20036;-81
2023/08/29 08:14:21;;;;;;;0.20;0.10;;;;;;;;;;5029725;28;20062;-80
2023/08/29 08:16:47;;;;;;;0.20;0.10;;;;;;;;;;5044189;28;20034;-80
2023/08/29 08:19:13;;;;;;;0.20;0.00;;;;;;;;;;5029105;28;20029;-81
2023/08/29 08:21:39;;;;;;;0.20;0.00;;;;;;;;;;5026569;28;20033;-80
2023/08/29 08:28:08;;;;;;;0.20;0.10;;;;;;;;;;5016019;28;20072;-87
2023/08/29 08:31:34;;;;;;;0.20;0.00;;;;;;;;;;4986066;28;20088;-87
2023/08/29 08:34:12;;;;;;;0.20;0.10;;;;;;;;;;4958608;28;20208;-87
2023/08/29 08:39:54;;;;;;;0.20;0.00;;;;;;;;;;5004381;28;20045;-86
2023/08/29 08:42:58;;;;;;;0.20;0.10;;;;;;;;;;5042638;23;20310;-86
2023/08/29 08:45:36;;;;;;;;;;;;;;;;;;5009764;28;20132;-86
2023/08/29 08:48:07;;;;;;;0.20;0.10;;;;;;;;;;5037984;28;20345;-85
2023/08/29 08:50:34;;;;;;;0.20;0.10;;;;;;;;;;5047524;28;20040;-84
2023/08/29 08:53:03;;;;;;;0.20;0.10;;;;;;;;;;5047267;28;20033;-86
2023/08/29 08:56:17;;;;;;;0.20;0.10;;;;;;;;;;5063871;28;20086;-86
2023/08/29 08:58:58;;;;;;;0.20;0.10;;;;;;;;;;5057902;28;20525;-86
2023/08/29 09:01:30;;;;;;;0.20;0.10;;;;;;;;;;5066204;28;20123;-86
2023/08/29 09:03:57;;;;;;;0.20;0.10;;;;;;;;;;5058934;28;20154;-84
2023/08/29 09:06:23;;;;;;;0.20;0.10;;;;;;;;;;5052480;28;20044;-85
2023/08/29 09:08:49;;;;;;;0.20;0.05;;;;;;;;;;5058910;28;20037;-86
2023/08/29 09:11:37;;;;;;;0.20;0.10;;;;;;;;;;5066467;28;20068;-87
2023/08/29 09:14:20;;;;;;;0.20;0.10;;;;;;;;;;5057836;28;20045;-86
2023/08/29 09:16:49;;;;;;;;;;;;;;;;;;5046466;28;20500;-86
2023/08/29 09:19:16;;;;;;;0.20;0.10;;;;;;;;;;5049706;28;19917;-84
2023/08/29 09:21:43;;;;;;;0.20;0.10;;;;;;;;;;5046289;28;20187;-86
2023/08/29 09:24:21;;;;;;;0.20;0.00;;;;;;;;;;5045116;28;20039;-88
2023/08/29 09:26:47;;;;;;;0.20;0.10;;;;;;;;;;5053665;28;20048;-87
2023/08/29 09:29:20;;;;;;;0.20;0.10;;;;;;;;;;5058978;28;20127;-85
2023/08/29 09:31:47;;;;;;;0.20;0.10;;;;;;;;;;5060394;28;20048;-85
2023/08/29 09:34:26;;;;;;;0.32;0.13;;;;;;;;;;5057941;28;20119;-84
2023/08/29 09:36:53;;;;;;;0.20;0.10;;;;;;;;;;5059903;28;20063;-87
2023/08/29 09:39:20;;;;;;;0.20;0.10;;;;;;;;;;5060052;28;20028;-84
2023/08/29 09:42:06;;;;;;;0.20;0.10;;;;;;;;;;5058752;28;20052;-84
2023/08/29 09:44:36;;;;;;;0.20;0.10;;;;;;;;;;5045805;28;20076;-85
2023/08/29 09:47:03;;;;;;;0.20;0.00;;;;;;;;;;5051478;28;20037;-84
2023/08/29 09:49:32;;;;;;;0.20;0.10;;;;;;;;;;5044038;28;20078;-87
2023/08/29 09:52:01;;;;;;;0.20;0.10;;;;;;;;;;5055461;28;20044;-87
2023/08/29 09:54:29;;;;;;;0.20;0.00;;;;;;;;;;5047041;28;20041;-86
2023/08/29 09:56:57;;;;;;;0.20;0.10;;;;;;;;;;5038954;28;20041;-86
2023/08/29 09:59:33;;;;;;;0.20;0.00;;;;;;;;;;5048786;28;20033;-86
2023/08/29 10:02:00;;;;;;;0.20;0.00;;;;;;;;;;5044901;28;20424;-88
2023/08/29 10:04:30;;;;;;;0.20;0.10;;;;;;;;;;5043026;28;20433;-86
2023/08/29 10:06:57;;;;;;;0.20;0.10;;;;;;;;;;5039160;28;20042;-86
2023/08/29 10:09:25;;;;;;;0.32;0.20;;;;;;;;;;5041053;28;20051;-84
2023/08/29 10:11:52;;;;;;;0.20;0.10;;;;;;;;;;5044394;28;20064;-84
2023/08/29 10:14:19;;;;;;;0.20;0.10;;;;;;;;;;5056031;28;20466;-87
2023/08/29 10:16:52;;;;;;;0.28;0.10;;;;;;;;;;5059588;28;20079;-84
2023/08/29 10:19:21;;;;;;;0.20;0.00;;;;;;;;;;5059073;28;20040;-87
2023/08/29 10:21:55;;;;;;;0.20;0.17;;;;;;;;;;5060649;28;20106;-87
2023/08/29 10:24:27;;;;;;;0.20;0.00;;;;;;;;;;5051170;28;20508;-88
2023/08/29 10:26:54;;;;;;;0.20;0.10;;;;;;;;;;5051443;28;20024;-85
2023/08/29 10:29:24;;;;;;;0.20;0.10;;;;;;;;;;5055131;28;20366;-87
2023/08/29 10:31:53;;;;;;;0.20;0.10;;;;;;;;;;5050340;28;20052;-86
2023/08/29 10:34:20;;;;;;;0.20;0.10;;;;;;;;;;5042749;28;20093;-85
2023/08/29 10:36:49;;;;;;;0.20;0.00;;;;;;;;;;5043558;28;20041;-86
2023/08/29 10:39:15;;;;;;;0.20;0.10;;;;;;;;;;5041686;28;20594;-86
2023/08/29 10:41:46;;;;;;;0.20;0.10;;;;;;;;;;5041185;28;21317;-86
2023/08/29 10:44:32;;;;;;;0.20;0.10;;;;;;;;;;5060005;28;20078;-86
2023/08/29 10:47:16;;;;;;;0.20;0.10;;;;;;;;;;5042160;28;20076;-87
2023/08/29 10:49:56;;;;;;;0.20;0.10;;;;;;;;;;5040166;28;20256;-87
2023/08/29 10:52:40;;;;;;;0.20;0.10;;;;;;;;;;5061170;28;20137;-86
2023/08/29 10:55:20;;;;;;;0.20;0.10;;;;;;;;;;5042417;28;20048;-86
2023/08/29 10:57:49;;;;;;;0.20;0.10;;;;;;;;;;5057414;28;20515;-85
2023/08/29 11:00:43;;;;;;;0.20;0.10;;;;;;;;;;5059474;28;20486;-85
2023/08/29 11:03:21;;;;;;;0.20;0.00;;;;;;;;;;5040921;28;20079;-84
2023/08/29 11:05:58;;;;;;;0.20;0.00;;;;;;;;;;5056871;28;20059;-85
2023/08/29 11:08:28;;;;;;;0.20;0.00;;;;;;;;;;5058034;28;20048;-85
2023/08/29 11:11:22;;;;;;;0.20;0.10;;;;;;;;;;5046259;28;20404;-84
2023/08/29 11:14:16;;;;;;;0.20;0.10;;;;;;;;;;5042469;28;20531;-84
2023/08/29 11:17:02;;;;;;;0.20;0.00;;;;;;;;;;5056934;28;20043;-86
2023/08/29 11:19:31;;;;;;;0.40;0.32;;;;;;;;;;5037089;28;20062;-86
2023/08/29 11:22:03;;;;;;;0.20;0.10;;;;;;;;;;5037662;28;20139;-86
2023/08/29 11:24:43;;;;;;;0.20;0.10;;;;;;;;;;5059703;28;20052;-87
2023/08/29 11:27:18;;;;;;;0.20;0.10;;;;;;;;;;5055099;28;20032;-85
2023/08/29 11:29:45;;;;;;;0.20;0.08;;;;;;;;;;5041964;28;20040;-86
2023/08/29 11:32:24;;;;;;;0.20;0.10;;;;;;;;;;5039774;28;20493;-86
2023/08/29 11:34:54;;;;;;;0.20;0.10;;;;;;;;;;5042736;28;20044;-85
2023/08/29 11:37:30;;;;;;;0.20;0.10;;;;;;;;;;5040867;28;20036;-85
2023/08/29 11:40:01;;;;;;;0.20;0.10;;;;;;;;;;5054282;28;20052;-86
2023/08/29 11:42:32;;;;;;;0.20;0.00;;;;;;;;;;5040410;28;20561;-84
2023/08/29 11:45:05;;;;;;;0.20;0.10;;;;;;;;;;5043326;28;20128;-85
2023/08/29 11:47:59;;;;;;;0.50;0.40;;;;;;;;;;5051631;28;20505;-85
2023/08/29 11:50:37;;;;;;;0.20;0.10;;;;;;;;;;5047403;28;20040;-87
2023/08/29 11:53:24;;;;;;;0.20;0.10;;;;;;;;;;5054825;28;20492;-84
2023/08/29 11:55:53;;;;;;;0.20;0.20;;;;;;;;;;5036340;28;20040;-85
2023/08/29 11:58:29;;;;;;;0.30;0.17;;;;;;;;;;5046254;28;20043;-87
2023/08/29 12:01:00;;;;;;;0.20;0.10;;;;;;;;;;5058673;28;20032;-86
2023/08/29 12:04:02;;;;;;;0.20;0.10;;;;;;;;;;5056607;28;20142;-87
2023/08/29 12:06:49;;;;;;;0.20;0.10;;;;;;;;;;5058162;28;20381;-85
2023/08/29 12:09:21;;;;;;;0.20;0.10;;;;;;;;;;5040061;28;20608;-87
2023/08/29 12:12:00;;;;;;;0.20;0.10;;;;;;;;;;5033833;28;20036;-85
2023/08/29 12:14:27;;;;;;;0.20;0.10;;;;;;;;;;5054808;28;20501;-84
2023/08/29 12:16:59;;;;;;;0.20;0.03;;;;;;;;;;5040828;28;20040;-86
2023/08/29 12:19:25;;;;;;;0.20;0.10;;;;;;;;;;5052864;28;20259;-86
2023/08/29 12:21:55;;;;;;;0.20;0.00;;;;;;;;;;5056881;28;20044;-85
2023/08/29 12:24:21;;;;;;;0.20;0.10;;;;;;;;;;5058034;28;20406;-86
2023/08/29 12:26:51;;;;;;;0.20;0.10;;;;;;;;;;5051483;28;20040;-85
2023/08/29 12:29:20;;;;;;;0.20;0.10;;;;;;;;;;5043937;28;20051;-87
2023/08/29 12:31:46;;;;;;;0.20;0.10;;;;;;;;;;5043312;28;20063;-86
2023/08/29 12:34:12;;;;;;;0.20;0.10;;;;;;;;;;5038822;28;20060;-85
2023/08/29 12:36:41;;;;;;;0.43;0.20;;;;;;;;;;5045172;28;20551;-86
2023/08/29 12:39:10;;;;;;;0.20;0.10;;;;;;;;;;5044643;28;20044;-86
2023/08/29 12:41:42;;;;;;;0.20;0.10;;;;;;;;;;5051657;28;20413;-87
2023/08/29 12:44:13;;;;;;;0.20;0.10;;;;;;;;;;5037268;28;20036;-85
2023/08/29 12:46:40;;;;;;;0.20;0.08;;;;;;;;;;5047819;28;20040;-87
2023/08/29 12:49:17;;;;;;;0.20;0.10;;;;;;;;;;5050157;28;20078;-85
2023/08/29 12:51:46;;;;;;;0.20;0.10;;;;;;;;;;5048304;28;20481;-85
2023/08/29 12:54:14;;;;;;;0.20;0.10;;;;;;;;;;5059292;28;20158;-85
2023/08/29 12:56:41;;;;;;;0.20;0.10;;;;;;;;;;5045409;28;20040;-84
2023/08/29 12:59:15;;;;;;;0.20;0.10;;;;;;;;;;5055406;28;20130;-85
2023/08/29 13:01:41;;;;;;;0.20;0.03;;;;;;;;;;5042996;28;20045;-84
2023/08/29 13:04:07;;;;;;;0.20;0.10;;;;;;;;;;5045780;28;20036;-85
2023/08/29 13:06:33;;;;;;;0.20;0.10;;;;;;;;;;5056734;28;20086;-86
2023/08/29 13:09:07;;;;;;;0.20;0.10;;;;;;;;;;5060077;28;20071;-87
2023/08/29 13:11:57;;;;;;;0.20;0.10;;;;;;;;;;5044356;28;20584;-87
2023/08/29 13:14:29;;;;;;;0.20;0.10;;;;;;;;;;5047759;28;20051;-85
2023/08/29 13:16:55;;;;;;;0.20;0.10;;;;;;;;;;5044776;28;20756;-85
2023/08/29 13:19:21;;;;;;;0.20;0.10;;;;;;;;;;5062457;28;20476;-86
2023/08/29 13:21:50;;;;;;;0.20;0.10;;;;;;;;;;5041273;28;20045;-87
2023/08/29 13:24:21;;;;;;;0.20;0.10;;;;;;;;;;5045355;28;20111;-86
2023/08/29 13:26:51;;;;;;;0.20;0.10;;;;;;;;;;5039361;28;20601;-86
2023/08/29 13:29:17;;;;;;;0.47;0.20;;;;;;;;;;5042818;28;20048;-85
2023/08/29 13:31:45;;;;;;;0.20;0.03;;;;;;;;;;5058764;28;20249;-86
2023/08/29 13:34:17;;;;;;;0.40;0.40;;;;;;;;;;5039795;28;20044;-87
2023/08/29 13:36:46;;;;;;;0.20;0.08;;;;;;;;;;5055644;28;20122;-86
2023/08/29 13:39:12;;;;;;;0.20;0.10;;;;;;;;;;5058419;28;20119;-86
2023/08/29 13:41:39;;;;;;;0.20;0.00;;;;;;;;;;5056244;28;20102;-88
2023/08/29 13:44:08;;;;;;;0.20;0.10;;;;;;;;;;5054801;28;20501;-86
2023/08/29 13:46:42;;;;;;;0.20;0.10;;;;;;;;;;5045529;28;20049;-87
2023/08/29 13:49:08;;;;;;;0.20;0.00;;;;;;;;;;5043631;28;20044;-84
2023/08/29 13:51:35;;;;;;;0.20;0.10;;;;;;;;;;5046702;28;20041;-86
2023/08/29 13:54:01;;;;;;;0.20;0.10;;;;;;;;;;5059116;28;20109;-87
2023/08/29 13:56:27;;;;;;;0.20;0.10;;;;;;;;;;5042555;28;20453;-86
2023/08/29 13:58:53;;;;;;;0.20;0.05;;;;;;;;;;5050003;28;20037;-87
2023/08/29 14:01:19;;;;;;;0.20;0.10;;;;;;;;;;5045181;28;20119;-86
2023/08/29 14:03:45;;;;;;;0.20;0.10;;;;;;;;;;5043974;28;20696;-85
2023/08/29 14:06:12;;;;;;;0.20;0.10;;;;;;;;;;5055531;28;20085;-86
2023/08/29 14:08:38;;;;;;;0.20;0.10;;;;;;;;;;5061606;28;20075;-87
2023/08/29 14:11:07;;;;;;;0.20;0.10;;;;;;;;;;5042388;28;20597;-86
2023/08/29 14:13:39;;;;;;;0.20;0.03;;;;;;;;;;5040097;28;20045;-86
2023/08/29 14:16:06;;;;;;;0.20;0.10;;;;;;;;;;5040226;28;20033;-86
2023/08/29 14:18:33;;;;;;;0.20;0.10;;;;;;;;;;5057812;28;20044;-85
2023/08/29 14:20:59;;;;;;;0.20;0.10;;;;;;;;;;5041018;28;20037;-85
2023/08/29 14:23:26;;;;;;;0.20;0.10;;;;;;;;;;5041190;22;20041;-79
2023/08/29 14:25:52;;;;;;;0.20;0.00;;;;;;;;;;5019098;28;20046;-80
2023/08/29 14:28:18;;;;;;;0.20;0.05;;;;;;;;;;5001293;28;20456;-79
2023/08/29 14:30:45;;;;;;;0.20;0.05;;;;;;;;;;5018954;28;20104;-80
2023/08/29 14:33:11;;;;;;;0.22;0.13;;;;;;;;;;5013735;28;20454;-81
2023/08/29 14:35:37;;;;;;;0.20;0.10;;;;;;;;;;4998421;28;20073;-80
2023/08/29 14:38:03;;;;;;;0.20;0.05;;;;;;;;;;4997496;28;20049;-80
2023/08/29 14:40:29;;;;;;;0.20;0.05;;;;;;;;;;5002597;28;20037;-81
2023/08/29 14:42:56;;;;;;;0.20;0.00;;;;;;;;;;5010217;28;20402;-79
2023/08/29 14:45:22;;;;;;;0.20;0.00;;;;;;;;;;4978872;28;20133;-80
2023/08/29 14:47:48;;;;;;;0.20;0.10;;;;;;;;;;4998276;28;20041;-81
2023/08/29 14:50:14;;;;;;;0.20;0.10;;;;;;;;;;4978637;28;22112;-80
2023/08/29 14:52:40;;;;;;;0.20;0.10;;;;;;;;;;4997657;28;20109;-80
2023/08/29 14:55:08;;;;;;;0.25;0.15;;;;;;;;;;4982709;28;20057;-80
2023/08/29 14:57:34;;;;;;;0.20;0.10;;;;;;;;;;4991988;28;20469;-79
2023/08/29 15:00:00;;;;;;;0.20;0.10;;;;;;;;;;4986085;28;20034;-80
2023/08/29 15:02:27;;;;;;;0.20;0.10;;;;;;;;;;4979995;28;20601;-79
2023/08/29 15:04:53;;;;;;;0.20;0.10;;;;;;;;;;4997006;28;20494;-80
2023/08/29 15:07:19;;;;;;;0.20;0.10;;;;;;;;;;4979658;28;20046;-81
2023/08/29 15:09:45;;;;;;;0.20;0.10;;;;;;;;;;4983706;28;20061;-81
2023/08/29 15:12:11;;;;;;;0.20;0.10;;;;;;;;;;4983889;28;20616;-81
2023/08/29 15:14:37;;;;;;;0.20;0.10;;;;;;;;;;5001504;28;20049;-80
2023/08/29 15:17:03;;;;;;;0.20;0.10;;;;;;;;;;4973501;28;20038;-81
2023/08/29 15:19:30;;;;;;;0.20;0.10;;;;;;;;;;5022905;28;20798;-81
2023/08/29 15:21:56;;;;;;;0.20;0.10;;;;;;;;;;4985704;28;20054;-81
2023/08/29 15:24:23;;;;;;;0.20;0.10;;;;;;;;;;4999936;28;20415;-80